Aviation Digital Data Service (ADDS)

Output produced by METARs form (0211 UTC 24 November 2017)
found at http://www.aviationweather.gov/adds/metars/
 
EFHA 240150Z AUTO 15010KT 120V190 2700 BR OVC003 01/01 Q1001
EFHA 240120Z AUTO 15012KT 120V200 1800 BR OVC002 01/01 Q1002
EFHA 240050Z AUTO 15012KT 1700 BR OVC002 01/01 Q1001
EFHA 240020Z AUTO 15013KT 2000 BR OVC002 01/00 Q1002
EFHA 232350Z AUTO 15014KT 2400 BR OVC002 01/00 Q1002
EFHA 232320Z AUTO 15012KT 2400 BR OVC002 00/00 Q1002
EFHA 232250Z AUTO 15013KT 2800 BR OVC002 00/00 Q1003
EFHA 232220Z AUTO 16014G26KT 3100 BR OVC003 00/00 Q1003
EFHA 232150Z AUTO 15013KT 3100 BR OVC003 00/00 Q1003
EFHA 232120Z AUTO 15010KT 3600 BR OVC003 00/00 Q1003
EFHA 232050Z AUTO 14014KT 7000 OVC003 00/00 Q1003
EFHA 232020Z AUTO 15016KT 9999 -SHRA VCSH OVC004 00/00 Q1003
EFHA 231950Z AUTO 15015G25KT 9999 -SHRA OVC004 00/00 Q1003
EFHA 231920Z AUTO 15014KT 9999 -DZ OVC004 00/00 Q1004 REFZRA
EFHA 231850Z AUTO 15016KT 9000 -RA OVC004 00/00 Q1004 REFZRA
EFHA 231820Z AUTO 16014KT 5000 -FZRA OVC004 00/00 Q1004 REFZRA
EFHA 231750Z AUTO 15016G28KT 6000 -FZRA VCSH OVC004 00/00 Q1004 REFZDZ
EFHA 231720Z AUTO 15015KT 5000 -FZRA OVC004 00/00 Q1005
EFHA 231650Z AUTO 15015KT 5000 -SG OVC005 00/M01 Q1005
EFHA 231620Z AUTO 15014KT 3100 BR VCSH OVC008 00/M01 Q1005
EFHA 231550Z AUTO 15014KT 4700 -SN OVC008 00/M01 Q1005
EFHA 231520Z AUTO 14018G28KT 3200 BR OVC008 00/M01 Q1004
EFHA 231450Z AUTO 14015G25KT 4400 BR OVC008 00/M01 Q1005
EFHA 231420Z AUTO 14014KT 4700 BR OVC008 00/M01 Q1006
EFHA 231350Z AUTO 14016G28KT 5000 -SG OVC010 00/M02 Q1006
EFHA 231320Z AUTO 14016KT 5000 -SG VCSH OVC009 M01/M02 Q1006
EFHA 231250Z 13014KT 2600 -SN OVC007 M02/M03 Q1006
EFHA 231220Z 12015KT 2000 -SN OVC008 M02/M03 Q1007 RESN
EFHA 231150Z 12015KT 2000 -SN OVC006 M02/M03 Q1007 RESN
EFHA 231120Z 13016KT 2000 DRSN OVC009 M02/M03 Q1008
EFHA 231050Z 12017KT 1800 DRSN OVC010 M02/M04 Q1008
EFHA 231020Z 13016G27KT 2200 DRSN OVC012 M02/M04 Q1009
EFHA 230950Z 12016KT 2200 DRSN OVC013 M03/M04 Q1009
EFHA 230920Z 11015KT 2200 -SN OVC011 M03/M04 Q1009 RESN
EFHA 230850Z 11014G25KT 2500 DRSN OVC008 M04/M05 Q1010
EFHA 230820Z 12014KT 1800 DRSN OVC007 M04/M05 Q1011
EFHA 230750Z 12015KT 2000 DRSN OVC010 M04/M05 Q1011
EFHA 230720Z 12013KT 2000 -SN OVC010 M04/M05 Q1012
EFHA 230650Z 12014KT 4000 -SN OVC007 M04/M06 Q1012
EFHA 230620Z AUTO 12012KT 9999 VCSH OVC007 M04/M06 Q1013
EFHA 230550Z AUTO 12012KT 9999 OVC007 M05/M06 Q1013
EFHA 230520Z AUTO 11014KT 9999 OVC007 M05/M06 Q1013
EFHA 230450Z AUTO 12013G23KT 080V150 9999 OVC007 M05/M06 Q1013
EFHA 230420Z AUTO 12011KT 090V160 9999 OVC008 M05/M06 Q1013
EFHA 230350Z AUTO 12013KT 9999 OVC006 M05/M06 Q1014
EFHA 230320Z AUTO 11012KT 9999 -SN OVC005 M05/M06 Q1014
EFHA 230250Z AUTO 11012KT 9999 -SG OVC005 M05/M06 Q1014
EFHA 230220Z AUTO 11012KT 9999 OVC005 M05/M06 Q1015
EFHA 230150Z AUTO 11010KT 080V150 9999 OVC005 M05/M06 Q1015
EFHA 230120Z AUTO 11007KT 070V140 9999 OVC005 M05/M06 Q1016
EFHA 230050Z AUTO 11008KT 070V140 9999 -SHSN OVC006 M05/M06 Q1016
EFHA 230020Z AUTO 12008KT 080V160 9999 OVC006 M05/M06 Q1016
EFHA 222350Z AUTO 10007KT 9999 -SHSN OVC005 M05/M06 Q1016
EFHA 222320Z AUTO 10010KT 9999 OVC005 M06/M06 Q1016
EFHA 222250Z AUTO 10008KT 9999 OVC005 M06/M06 Q1017
EFHA 222220Z AUTO 11010KT 070V140 9999 OVC004 M06/M06 Q1017
EFHA 222150Z AUTO 09013KT 9999 OVC005 M06/M07 Q1017
EFHA 222120Z AUTO 10011KT 9999 OVC006 M05/M06 Q1017
EFHA 222050Z AUTO 10010KT 9999 OVC006 M05/M06 Q1017
EFHA 222020Z AUTO 10009KT 9999 OVC006 M05/M06 Q1017
EFHA 221950Z AUTO 09008KT 9999 OVC006 M05/M06 Q1017
EFHA 221920Z AUTO 09008KT 9999 OVC007 M05/M06 Q1016
EFHA 221850Z AUTO 10008KT 9999 OVC007 M05/M06 Q1017
EFHA 221820Z AUTO 09008KT 020V120 9999 OVC008 M04/M06 Q1016
EFHA 221750Z AUTO 10005KT 020V140 9999 OVC008 M04/M06 Q1016
EFHA 221720Z AUTO 10006KT 060V140 9999 OVC008 M04/M06 Q1017
EFHA 221650Z AUTO 09007KT 9999 OVC009 M04/M06 Q1016
EFHA 221620Z AUTO 09008KT 9999 OVC010 M04/M06 Q1017
EFHA 221550Z AUTO 10007KT 9999 OVC009 M04/M06 Q1017
EFHA 221520Z AUTO 08007KT 9999 OVC009 M04/M05 Q1016
EFHA 221450Z AUTO 09008KT 050V140 9999 -SN OVC010 M04/M05 Q1016
EFHA 221420Z AUTO 08007KT 040V120 9999 -SN OVC009 M04/M05 Q1016